Time,TemperatureF,DewpointF,PressureIn,WindDirection,WindDirectionDegrees,WindSpeedMPH,WindSpeedGustMPH,Humidity,HourlyPrecipIn,Conditions,Clouds,dailyrainin,SoftwareType,DateUTC
2013-02-08 00:02:00,70.0,63.0,29.91,WSW,242,6.0,10.0,78,99.99,,,-99.99,,2013-02-08 05:02:00,
2013-02-08 00:12:00,70.0,63.0,29.91,WSW,242,6.0,10.0,78,99.99,,,-99.99,,2013-02-08 05:12:00,
2013-02-08 00:22:00,70.0,63.0,29.91,WSW,242,7.0,15.0,79,99.99,,,-99.99,,2013-02-08 05:22:00,
2013-02-08 00:32:00,70.0,64.0,29.91,SW,233,8.0,13.0,80,99.99,,,-99.99,,2013-02-08 05:32:00,
2013-02-08 00:42:00,70.0,64.0,29.91,SW,233,8.0,13.0,80,99.99,,,-99.99,,2013-02-08 05:42:00,
2013-02-08 00:52:00,70.0,64.0,29.91,SW,221,9.0,13.0,81,99.99,,,-99.99,,2013-02-08 05:52:00,
2013-02-08 01:02:00,69.0,63.0,29.91,WSW,250,7.0,12.0,82,99.99,,,-99.99,,2013-02-08 06:02:00,
2013-02-08 01:11:00,69.0,63.0,29.91,WSW,250,7.0,12.0,82,99.99,,,-99.99,,2013-02-08 06:11:00,
2013-02-08 01:21:00,69.0,64.0,29.91,WSW,252,6.0,13.0,83,99.99,,,-99.99,,2013-02-08 06:21:00,
2013-02-08 01:32:00,68.0,64.0,29.90,West,260,6.0,11.0,86,99.99,,,-99.99,,2013-02-08 06:32:00,
2013-02-08 01:42:00,68.0,64.0,29.90,West,260,6.0,11.0,86,99.99,,,-99.99,,2013-02-08 06:42:00,
2013-02-08 01:51:00,68.0,64.0,29.90,WSW,253,5.0,9.0,87,99.99,,,-99.99,,2013-02-08 06:51:00,
2013-02-08 02:01:00,68.0,64.0,29.89,SW,215,5.0,10.0,88,99.99,,,-99.99,,2013-02-08 07:01:00,
2013-02-08 02:11:00,68.0,64.0,29.89,SW,215,5.0,10.0,88,99.99,,,-99.99,,2013-02-08 07:11:00,
2013-02-08 02:21:00,68.0,64.0,29.89,SW,215,5.0,10.0,88,99.99,,,-99.99,,2013-02-08 07:21:00,
2013-02-08 02:32:00,68.0,65.0,29.89,West,276,4.0,7.0,90,99.99,,,-99.99,,2013-02-08 07:32:00,
2013-02-08 02:42:00,67.0,64.0,29.88,WSW,257,5.0,9.0,90,99.99,,,-99.99,,2013-02-08 07:42:00,
2013-02-08 02:52:00,67.0,64.0,29.88,WSW,257,5.0,9.0,90,99.99,,,-99.99,,2013-02-08 07:52:00,
2013-02-08 03:01:00,67.0,65.0,29.88,WSW,238,6.0,10.0,92,99.99,,,-99.99,,2013-02-08 08:01:00,
2013-02-08 03:11:00,67.0,65.0,29.88,West,266,4.0,9.0,93,99.99,,,-99.99,,2013-02-08 08:11:00,
2013-02-08 03:21:00,67.0,65.0,29.88,West,266,4.0,9.0,93,99.99,,,-99.99,,2013-02-08 08:21:00,
2013-02-08 03:32:00,67.0,65.0,29.88,West,266,4.0,9.0,93,99.99,,,-99.99,,2013-02-08 08:32:00,
2013-02-08 03:42:00,67.0,65.0,29.88,West,266,4.0,9.0,93,99.99,,,-99.99,,2013-02-08 08:42:00,
2013-02-08 03:52:00,66.0,65.0,29.90,NW,307,5.0,8.0,96,99.99,,,-99.99,,2013-02-08 08:52:00,
2013-02-08 04:03:00,66.0,65.0,29.90,NW,307,5.0,8.0,96,99.99,,,-99.99,,2013-02-08 09:03:00,
2013-02-08 04:11:00,66.0,65.0,29.90,NW,307,5.0,8.0,96,99.99,,,-99.99,,2013-02-08 09:11:00,
2013-02-08 04:21:00,66.0,65.0,29.90,NW,307,5.0,8.0,96,99.99,,,-99.99,,2013-02-08 09:21:00,
2013-02-08 05:22:00,64.0,64.0,29.91,NW,312,4.0,5.0,100,99.99,,,-99.99,,2013-02-08 10:22:00,
2013-02-08 05:32:00,64.0,64.0,29.91,WNW,291,4.0,6.0,100,99.99,,,-99.99,,2013-02-08 10:32:00,
2013-02-08 05:42:00,64.0,64.0,29.91,WNW,291,4.0,6.0,100,99.99,,,-99.99,,2013-02-08 10:42:00,
2013-02-08 05:52:00,65.0,65.0,29.92,WNW,283,5.0,9.0,100,99.99,,,-99.99,,2013-02-08 10:52:00,
2013-02-08 06:01:00,65.0,65.0,29.92,NW,323,5.0,9.0,100,99.99,,,-99.99,,2013-02-08 11:01:00,
2013-02-08 06:11:00,65.0,65.0,29.92,NW,323,5.0,9.0,100,99.99,,,-99.99,,2013-02-08 11:11:00,
2013-02-08 06:21:00,65.0,65.0,29.92,NW,323,5.0,9.0,100,99.99,,,-99.99,,2013-02-08 11:21:00,
2013-02-08 06:32:00,66.0,66.0,29.93,WNW,293,6.0,11.0,100,99.99,,,-99.99,,2013-02-08 11:32:00,
2013-02-08 06:42:00,66.0,66.0,29.93,WNW,293,6.0,11.0,100,99.99,,,-99.99,,2013-02-08 11:42:00,
2013-02-08 06:52:00,66.0,66.0,29.94,NW,319,4.0,7.0,100,99.99,,,-99.99,,2013-02-08 11:52:00,
2013-02-08 07:02:00,66.0,66.0,29.94,NW,323,5.0,7.0,100,99.99,,,-99.99,,2013-02-08 12:02:00,
2013-02-08 07:11:00,66.0,66.0,29.94,NW,323,5.0,7.0,100,99.99,,,-99.99,,2013-02-08 12:11:00,
2013-02-08 07:22:00,66.0,66.0,29.94,NW,323,5.0,7.0,100,99.99,,,-99.99,,2013-02-08 12:22:00,
2013-02-08 07:33:00,66.0,66.0,29.96,WNW,301,5.0,8.0,100,99.99,,,-99.99,,2013-02-08 12:33:00,
2013-02-08 07:42:00,66.0,66.0,29.96,WNW,301,5.0,8.0,100,99.99,,,-99.99,,2013-02-08 12:42:00,
2013-02-08 07:52:00,66.0,66.0,29.97,WNW,294,3.0,7.0,100,99.99,,,-99.99,,2013-02-08 12:52:00,
2013-02-08 08:02:00,66.0,66.0,29.97,NW,319,4.0,7.0,100,99.99,,,-99.99,,2013-02-08 13:02:00,
2013-02-08 08:12:00,66.0,66.0,29.97,NW,319,4.0,7.0,100,99.99,,,-99.99,,2013-02-08 13:12:00,
2013-02-08 08:22:00,66.0,66.0,29.98,WNW,297,5.0,8.0,100,99.99,,,-99.99,,2013-02-08 13:22:00,
2013-02-08 08:32:00,66.0,66.0,29.98,NNW,328,4.0,9.0,100,99.99,,,-99.99,,2013-02-08 13:32:00,
2013-02-08 08:42:00,66.0,66.0,29.98,NNW,328,4.0,9.0,100,99.99,,,-99.99,,2013-02-08 13:42:00,
2013-02-08 08:52:00,66.0,66.0,29.98,NNW,328,4.0,9.0,100,99.99,,,-99.99,,2013-02-08 13:52:00,
2013-02-08 09:02:00,67.0,65.0,29.99,NNW,332,6.0,11.0,94,99.99,,,-99.99,,2013-02-08 14:02:00,
2013-02-08 09:11:00,67.0,65.0,29.99,NNW,332,6.0,11.0,94,99.99,,,-99.99,,2013-02-08 14:11:00,
2013-02-08 09:22:00,67.0,65.0,29.99,NNW,332,6.0,11.0,94,99.99,,,-99.99,,2013-02-08 14:22:00,
2013-02-08 09:32:00,68.0,62.0,30.00,NNW,342,9.0,15.0,81,99.99,,,-99.99,,2013-02-08 14:32:00,
2013-02-08 09:42:00,68.0,62.0,30.00,NNW,342,9.0,15.0,81,99.99,,,-99.99,,2013-02-08 14:42:00,
2013-02-08 09:52:00,68.0,62.0,30.01,NNW,328,6.0,10.0,80,99.99,,,-99.99,,2013-02-08 14:52:00,
2013-02-08 10:02:00,69.0,61.0,30.01,North,0,6.0,12.0,76,99.99,,,-99.99,,2013-02-08 15:02:00,
2013-02-08 10:12:00,69.0,61.0,30.01,North,0,6.0,12.0,76,99.99,,,-99.99,,2013-02-08 15:12:00,
2013-02-08 10:22:00,70.0,61.0,30.02,NW,308,6.0,10.0,72,99.99,,,-99.99,,2013-02-08 15:22:00,
2013-02-08 10:32:00,70.0,61.0,30.02,NNW,328,6.0,12.0,72,99.99,,,-99.99,,2013-02-08 15:32:00,
2013-02-08 10:42:00,70.0,61.0,30.02,NNW,328,6.0,12.0,72,99.99,,,-99.99,,2013-02-08 15:42:00,
2013-02-08 10:52:00,72.0,60.0,30.02,North,350,8.0,14.0,66,99.99,,,-99.99,,2013-02-08 15:52:00,
2013-02-08 11:02:00,73.0,60.0,30.02,NNW,340,7.0,11.0,64,99.99,,,-99.99,,2013-02-08 16:02:00,
2013-02-08 11:11:00,73.0,60.0,30.02,NNW,340,7.0,11.0,64,99.99,,,-99.99,,2013-02-08 16:11:00,
2013-02-08 11:22:00,73.0,58.0,30.02,NNW,335,8.0,12.0,60,99.99,,,-99.99,,2013-02-08 16:22:00,
2013-02-08 11:32:00,74.0,59.0,30.02,NNW,328,8.0,16.0,60,99.99,,,-99.99,,2013-02-08 16:32:00,
2013-02-08 11:42:00,74.0,59.0,30.02,NNW,328,8.0,16.0,60,99.99,,,-99.99,,2013-02-08 16:42:00,
2013-02-08 11:52:00,74.0,58.0,30.02,NNW,328,8.0,13.0,58,99.99,,,-99.99,,2013-02-08 16:52:00,
2013-02-08 12:03:00,75.0,60.0,30.01,North,8,6.0,11.0,59,99.99,,,-99.99,,2013-02-08 17:03:00,
2013-02-08 12:12:00,75.0,57.0,30.01,NNW,347,9.0,15.0,53,99.99,,,-99.99,,2013-02-08 17:12:00,
2013-02-08 12:23:00,75.0,57.0,30.01,NNW,347,9.0,15.0,53,99.99,,,-99.99,,2013-02-08 17:23:00,
2013-02-08 12:32:00,76.0,57.0,30.00,NNW,343,8.0,16.0,51,99.99,,,-99.99,,2013-02-08 17:32:00,
2013-02-08 12:42:00,76.0,57.0,30.00,NNW,343,8.0,16.0,51,99.99,,,-99.99,,2013-02-08 17:42:00,
2013-02-08 12:53:00,76.0,55.0,30.00,NW,316,10.0,14.0,49,99.99,,,-99.99,,2013-02-08 17:53:00,
2013-02-08 13:02:00,77.0,55.0,29.99,NNW,329,7.0,18.0,47,99.99,,,-99.99,,2013-02-08 18:02:00,
2013-02-08 13:12:00,77.0,55.0,29.99,NNW,329,7.0,18.0,47,99.99,,,-99.99,,2013-02-08 18:12:00,
2013-02-08 13:24:00,79.0,56.0,29.98,NW,315,6.0,12.0,46,99.99,,,-99.99,,2013-02-08 18:24:00,
2013-02-08 13:35:00,79.0,55.0,29.98,NW,314,7.0,13.0,43,99.99,,,-99.99,,2013-02-08 18:35:00,
2013-02-08 13:43:00,79.0,55.0,29.98,NW,314,7.0,13.0,43,99.99,,,-99.99,,2013-02-08 18:43:00,
2013-02-08 13:53:00,80.0,55.0,29.97,NW,321,9.0,15.0,42,99.99,,,-99.99,,2013-02-08 18:53:00,
2013-02-08 14:02:00,80.0,53.0,29.96,NW,316,8.0,14.0,39,99.99,,,-99.99,,2013-02-08 19:02:00,
2013-02-08 14:11:00,80.0,53.0,29.96,NW,316,8.0,14.0,39,99.99,,,-99.99,,2013-02-08 19:11:00,
2013-02-08 14:22:00,80.0,51.0,29.96,NW,322,7.0,11.0,37,99.99,,,-99.99,,2013-02-08 19:22:00,
2013-02-08 14:32:00,81.0,53.0,29.97,NNW,335,7.0,15.0,38,99.99,,,-99.99,,2013-02-08 19:32:00,
2013-02-08 14:42:00,81.0,53.0,29.97,NNW,335,7.0,15.0,38,99.99,,,-99.99,,2013-02-08 19:42:00,
2013-02-08 14:52:00,81.0,52.0,29.96,West,280,6.0,13.0,37,99.99,,,-99.99,,2013-02-08 19:52:00,
2013-02-08 15:02:00,81.0,52.0,29.96,North,349,8.0,12.0,37,99.99,,,-99.99,,2013-02-08 20:02:00,
2013-02-08 15:12:00,81.0,52.0,29.96,North,349,8.0,12.0,37,99.99,,,-99.99,,2013-02-08 20:12:00,
2013-02-08 15:22:00,81.0,53.0,29.96,NW,326,6.0,9.0,38,99.99,,,-99.99,,2013-02-08 20:22:00,
2013-02-08 15:32:00,81.0,53.0,29.95,North,3,8.0,13.0,38,99.99,,,-99.99,,2013-02-08 20:32:00,
2013-02-08 15:42:00,81.0,53.0,29.95,North,3,8.0,13.0,38,99.99,,,-99.99,,2013-02-08 20:42:00,
2013-02-08 15:52:00,81.0,51.0,29.95,NNW,328,7.0,12.0,35,99.99,,,-99.99,,2013-02-08 20:52:00,
2013-02-08 16:02:00,81.0,52.0,29.95,NNW,336,7.0,14.0,37,99.99,,,-99.99,,2013-02-08 21:02:00,
2013-02-08 16:11:00,81.0,52.0,29.95,NNW,336,7.0,14.0,37,99.99,,,-99.99,,2013-02-08 21:11:00,
2013-02-08 16:22:00,81.0,52.0,29.95,NW,321,6.0,10.0,37,99.99,,,-99.99,,2013-02-08 21:22:00,
2013-02-08 16:32:00,81.0,52.0,29.95,North,349,6.0,12.0,37,99.99,,,-99.99,,2013-02-08 21:32:00,
2013-02-08 16:42:00,81.0,52.0,29.95,North,349,6.0,12.0,37,99.99,,,-99.99,,2013-02-08 21:42:00,
2013-02-08 16:52:00,81.0,52.0,29.96,NNW,339,7.0,12.0,36,99.99,,,-99.99,,2013-02-08 21:52:00,
2013-02-08 17:02:00,81.0,52.0,29.96,North,354,6.0,12.0,37,99.99,,,-99.99,,2013-02-08 22:02:00,
2013-02-08 17:11:00,81.0,52.0,29.96,North,354,6.0,12.0,37,99.99,,,-99.99,,2013-02-08 22:11:00,
2013-02-08 17:22:00,81.0,53.0,29.96,NW,323,5.0,9.0,38,99.99,,,-99.99,,2013-02-08 22:22:00,
2013-02-08 17:32:00,80.0,53.0,29.96,NNW,329,5.0,8.0,39,99.99,,,-99.99,,2013-02-08 22:32:00,
2013-02-08 17:42:00,80.0,53.0,29.96,NNW,329,5.0,8.0,39,99.99,,,-99.99,,2013-02-08 22:42:00,
2013-02-08 17:52:00,79.0,52.0,29.97,NNW,328,5.0,8.0,39,99.99,,,-99.99,,2013-02-08 22:52:00,
2013-02-08 18:01:00,78.0,52.0,29.97,NW,326,5.0,7.0,41,99.99,,,-99.99,,2013-02-08 23:01:00,
2013-02-08 18:11:00,78.0,52.0,29.97,NW,326,5.0,7.0,41,99.99,,,-99.99,,2013-02-08 23:11:00,
2013-02-08 18:21:00,77.0,53.0,29.97,NNW,339,5.0,7.0,44,99.99,,,-99.99,,2013-02-08 23:21:00,
2013-02-08 18:32:00,75.0,53.0,29.97,North,352,4.0,6.0,46,99.99,,,-99.99,,2013-02-08 23:32:00,
2013-02-08 18:42:00,75.0,53.0,29.97,North,352,4.0,6.0,46,99.99,,,-99.99,,2013-02-08 23:42:00,
2013-02-08 18:52:00,74.0,53.0,29.98,NNW,330,3.0,4.0,48,99.99,,,-99.99,,2013-02-08 23:52:00,
2013-02-08 19:02:00,73.0,54.0,29.98,NNW,345,2.0,3.0,51,99.99,,,-99.99,,2013-02-09 00:02:00,
2013-02-08 19:11:00,73.0,54.0,29.98,NNW,345,2.0,3.0,51,99.99,,,-99.99,,2013-02-09 00:11:00,
2013-02-08 19:22:00,71.0,53.0,29.99,NNW,339,3.0,4.0,53,99.99,,,-99.99,,2013-02-09 00:22:00,
2013-02-08 19:32:00,71.0,54.0,29.99,NNW,342,4.0,6.0,54,99.99,,,-99.99,,2013-02-09 00:32:00,
2013-02-08 19:42:00,71.0,54.0,29.99,NNW,342,4.0,6.0,54,99.99,,,-99.99,,2013-02-09 00:42:00,
2013-02-08 19:52:00,70.0,53.0,30.00,NNW,339,4.0,6.0,55,99.99,,,-99.99,,2013-02-09 00:52:00,
2013-02-08 20:01:00,70.0,53.0,30.01,North,349,5.0,8.0,55,99.99,,,-99.99,,2013-02-09 01:01:00,
2013-02-08 20:12:00,70.0,53.0,30.01,North,349,5.0,8.0,55,99.99,,,-99.99,,2013-02-09 01:12:00,
2013-02-08 20:22:00,70.0,53.0,30.01,NNW,335,5.0,8.0,55,99.99,,,-99.99,,2013-02-09 01:22:00,
2013-02-08 20:32:00,68.0,53.0,30.01,NW,321,5.0,7.0,59,99.99,,,-99.99,,2013-02-09 01:32:00,
2013-02-08 20:42:00,68.0,53.0,30.01,NW,321,5.0,7.0,59,99.99,,,-99.99,,2013-02-09 01:42:00,
2013-02-08 20:52:00,68.0,54.0,30.02,North,353,6.0,9.0,62,99.99,,,-99.99,,2013-02-09 01:52:00,
2013-02-08 21:01:00,67.0,55.0,30.03,NNW,338,6.0,9.0,65,99.99,,,-99.99,,2013-02-09 02:01:00,
2013-02-08 21:11:00,66.0,56.0,30.03,NW,326,5.0,8.0,69,99.99,,,-99.99,,2013-02-09 02:11:00,
2013-02-08 21:21:00,66.0,56.0,30.03,NW,326,5.0,8.0,69,99.99,,,-99.99,,2013-02-09 02:21:00,
2013-02-08 21:32:00,66.0,56.0,30.04,NNW,336,4.0,6.0,71,99.99,,,-99.99,,2013-02-09 02:32:00,
2013-02-08 21:42:00,66.0,56.0,30.04,NNW,336,4.0,6.0,71,99.99,,,-99.99,,2013-02-09 02:42:00,
2013-02-08 21:53:00,65.0,56.0,30.05,North,3,4.0,6.0,74,99.99,,,-99.99,,2013-02-09 02:53:00,
2013-02-08 22:02:00,64.0,56.0,30.06,NNW,340,4.0,7.0,76,99.99,,,-99.99,,2013-02-09 03:02:00,
2013-02-08 22:11:00,64.0,56.0,30.06,NNW,340,4.0,7.0,76,99.99,,,-99.99,,2013-02-09 03:11:00,
2013-02-08 22:22:00,64.0,57.0,30.06,North,359,4.0,6.0,78,99.99,,,-99.99,,2013-02-09 03:22:00,
2013-02-08 22:32:00,63.0,56.0,30.07,NNE,14,2.0,3.0,79,99.99,,,-99.99,,2013-02-09 03:32:00,
2013-02-08 22:42:00,63.0,56.0,30.07,NNE,14,2.0,3.0,79,99.99,,,-99.99,,2013-02-09 03:42:00,
2013-02-08 22:53:00,62.0,56.0,30.07,North,1,4.0,6.0,81,99.99,,,-99.99,,2013-02-09 03:53:00,
2013-02-08 23:03:00,61.0,57.0,30.08,NNW,345,3.0,5.0,86,99.99,,,-99.99,,2013-02-09 04:03:00,
2013-02-08 23:12:00,61.0,58.0,30.09,NNW,342,5.0,8.0,89,99.99,,,-99.99,,2013-02-09 04:12:00,
2013-02-08 23:23:00,61.0,58.0,30.09,NNW,342,5.0,8.0,89,99.99,,,-99.99,,2013-02-09 04:23:00,
2013-02-08 23:32:00,60.0,58.0,30.09,NNW,346,5.0,7.0,93,99.99,,,-99.99,,2013-02-09 04:32:00,
2013-02-08 23:42:00,60.0,58.0,30.09,NNW,346,5.0,7.0,93,99.99,,,-99.99,,2013-02-09 04:42:00,
2013-02-08 23:52:00,59.0,58.0,30.09,North,352,5.0,8.0,95,99.99,,,-99.99,,2013-02-09 04:52:00,